sensor_id;sensor_type;location;lat;lon;timestamp;P1;durP1;ratioP1;P2;durP2;ratioP2
34924;SDS011;21130;51.728;8.748;2022-08-19T00:01:42;8.85;;;7.82;;
34924;SDS011;21130;51.728;8.748;2022-08-19T00:04:10;14.15;;;9.07;;
34924;SDS011;21130;51.728;8.748;2022-08-19T00:06:38;9.75;;;8.68;;
34924;SDS011;21130;51.728;8.748;2022-08-19T00:09:06;8.88;;;7.97;;
34924;SDS011;21130;51.728;8.748;2022-08-19T00:11:33;8.55;;;7.85;;
34924;SDS011;21130;51.728;8.748;2022-08-19T00:14:00;11.43;;;8.95;;
34924;SDS011;21130;51.728;8.748;2022-08-19T00:16:26;13.13;;;9.02;;
34924;SDS011;21130;51.728;8.748;2022-08-19T00:18:52;9.43;;;8.43;;
34924;SDS011;21130;51.728;8.748;2022-08-19T00:21:18;8.30;;;7.53;;
34924;SDS011;21130;51.728;8.748;2022-08-19T00:26:50;9.23;;;7.97;;
34924;SDS011;21130;51.728;8.748;2022-08-19T00:29:17;8.10;;;7.40;;
34924;SDS011;21130;51.728;8.748;2022-08-19T00:31:44;8.88;;;8.07;;
34924;SDS011;21130;51.728;8.748;2022-08-19T00:34:11;10.25;;;9.05;;
34924;SDS011;21130;51.728;8.748;2022-08-19T00:36:38;9.35;;;8.38;;
34924;SDS011;21130;51.728;8.748;2022-08-19T00:39:04;12.18;;;9.07;;
34924;SDS011;21130;51.728;8.748;2022-08-19T00:41:30;11.13;;;9.90;;
34924;SDS011;21130;51.728;8.748;2022-08-19T00:43:56;11.80;;;9.60;;
34924;SDS011;21130;51.728;8.748;2022-08-19T00:46:34;9.52;;;8.57;;
34924;SDS011;21130;51.728;8.748;2022-08-19T00:49:02;13.23;;;9.57;;
34924;SDS011;21130;51.728;8.748;2022-08-19T00:51:34;12.93;;;9.88;;
34924;SDS011;21130;51.728;8.748;2022-08-19T00:54:01;11.15;;;9.27;;
34924;SDS011;21130;51.728;8.748;2022-08-19T00:56:28;11.68;;;10.27;;
34924;SDS011;21130;51.728;8.748;2022-08-19T00:58:56;11.32;;;10.23;;
34924;SDS011;21130;51.728;8.748;2022-08-19T01:01:23;10.82;;;9.43;;
34924;SDS011;21130;51.728;8.748;2022-08-19T01:03:49;13.60;;;10.57;;
34924;SDS011;21130;51.728;8.748;2022-08-19T01:06:14;11.90;;;10.23;;
34924;SDS011;21130;51.728;8.748;2022-08-19T01:08:40;11.68;;;10.57;;
34924;SDS011;21130;51.728;8.748;2022-08-19T01:11:06;13.80;;;10.95;;
34924;SDS011;21130;51.728;8.748;2022-08-19T01:13:33;12.90;;;10.80;;
34924;SDS011;21130;51.728;8.748;2022-08-19T01:16:09;12.77;;;10.57;;
34924;SDS011;21130;51.728;8.748;2022-08-19T01:18:36;13.35;;;10.90;;
34924;SDS011;21130;51.728;8.748;2022-08-19T01:21:08;13.00;;;11.68;;
34924;SDS011;21130;51.728;8.748;2022-08-19T01:23:40;13.00;;;11.20;;
34924;SDS011;21130;51.728;8.748;2022-08-19T01:26:15;15.73;;;12.13;;
34924;SDS011;21130;51.728;8.748;2022-08-19T01:28:42;12.35;;;11.05;;
34924;SDS011;21130;51.728;8.748;2022-08-19T01:31:13;13.18;;;10.80;;
34924;SDS011;21130;51.728;8.748;2022-08-19T01:33:40;13.55;;;10.68;;
34924;SDS011;21130;51.728;8.748;2022-08-19T01:36:11;12.88;;;11.57;;
34924;SDS011;21130;51.728;8.748;2022-08-19T01:38:39;12.55;;;11.32;;
34924;SDS011;21130;51.728;8.748;2022-08-19T01:41:06;14.35;;;11.57;;
34924;SDS011;21130;51.728;8.748;2022-08-19T01:43:32;12.20;;;11.00;;
34924;SDS011;21130;51.728;8.748;2022-08-19T01:45:58;12.20;;;10.93;;
34924;SDS011;21130;51.728;8.748;2022-08-19T01:48:23;13.40;;;11.63;;
34924;SDS011;21130;51.728;8.748;2022-08-19T01:50:49;11.57;;;10.57;;
34924;SDS011;21130;51.728;8.748;2022-08-19T01:53:14;13.68;;;11.45;;
34924;SDS011;21130;51.728;8.748;2022-08-19T01:55:41;11.77;;;10.65;;
34924;SDS011;21130;51.728;8.748;2022-08-19T01:58:15;13.80;;;11.77;;
34924;SDS011;21130;51.728;8.748;2022-08-19T02:00:45;12.73;;;11.43;;
34924;SDS011;21130;51.728;8.748;2022-08-19T02:03:12;12.88;;;11.48;;
34924;SDS011;21130;51.728;8.748;2022-08-19T02:05:39;13.20;;;11.73;;
34924;SDS011;21130;51.728;8.748;2022-08-19T02:08:06;12.50;;;11.30;;
34924;SDS011;21130;51.728;8.748;2022-08-19T02:10:32;12.95;;;11.65;;
34924;SDS011;21130;51.728;8.748;2022-08-19T02:12:57;14.70;;;13.15;;
34924;SDS011;21130;51.728;8.748;2022-08-19T02:15:23;14.98;;;13.00;;
34924;SDS011;21130;51.728;8.748;2022-08-19T02:17:49;14.98;;;13.15;;
34924;SDS011;21130;51.728;8.748;2022-08-19T02:20:15;14.88;;;13.38;;
34924;SDS011;21130;51.728;8.748;2022-08-19T02:22:41;14.52;;;12.80;;
34924;SDS011;21130;51.728;8.748;2022-08-19T02:25:08;14.07;;;12.57;;
34924;SDS011;21130;51.728;8.748;2022-08-19T02:27:35;15.20;;;12.95;;
34924;SDS011;21130;51.728;8.748;2022-08-19T02:30:00;14.77;;;13.07;;
34924;SDS011;21130;51.728;8.748;2022-08-19T02:32:26;15.88;;;14.18;;
34924;SDS011;21130;51.728;8.748;2022-08-19T02:34:52;16.35;;;14.52;;
34924;SDS011;21130;51.728;8.748;2022-08-19T02:37:17;14.63;;;13.05;;
34924;SDS011;21130;51.728;8.748;2022-08-19T02:40:01;13.45;;;12.13;;
34924;SDS011;21130;51.728;8.748;2022-08-19T02:42:27;14.52;;;13.05;;
34924;SDS011;21130;51.728;8.748;2022-08-19T02:44:54;14.52;;;13.02;;
34924;SDS011;21130;51.728;8.748;2022-08-19T02:47:20;13.82;;;12.52;;
34924;SDS011;21130;51.728;8.748;2022-08-19T02:49:46;14.52;;;13.15;;
34924;SDS011;21130;51.728;8.748;2022-08-19T02:52:11;14.30;;;12.82;;
34924;SDS011;21130;51.728;8.748;2022-08-19T02:54:37;14.07;;;12.70;;
34924;SDS011;21130;51.728;8.748;2022-08-19T02:57:03;15.13;;;13.63;;
34924;SDS011;21130;51.728;8.748;2022-08-19T02:59:30;15.50;;;13.18;;
34924;SDS011;21130;51.728;8.748;2022-08-19T03:01:56;14.38;;;12.98;;
34924;SDS011;21130;51.728;8.748;2022-08-19T03:04:21;17.83;;;15.00;;
34924;SDS011;21130;51.728;8.748;2022-08-19T03:06:48;17.38;;;15.63;;
34924;SDS011;21130;51.728;8.748;2022-08-19T03:09:13;21.50;;;16.98;;
34924;SDS011;21130;51.728;8.748;2022-08-19T03:11:40;22.13;;;18.80;;
34924;SDS011;21130;51.728;8.748;2022-08-19T03:14:06;25.58;;;19.70;;
34924;SDS011;21130;51.728;8.748;2022-08-19T03:16:34;23.67;;;21.20;;
34924;SDS011;21130;51.728;8.748;2022-08-19T03:19:06;26.95;;;22.45;;
34924;SDS011;21130;51.728;8.748;2022-08-19T03:21:32;26.83;;;22.02;;
34924;SDS011;21130;51.728;8.748;2022-08-19T03:24:04;25.95;;;22.33;;
34924;SDS011;21130;51.728;8.748;2022-08-19T03:26:31;26.98;;;24.15;;
34924;SDS011;21130;51.728;8.748;2022-08-19T03:28:57;31.38;;;26.10;;
34924;SDS011;21130;51.728;8.748;2022-08-19T03:31:28;32.83;;;27.25;;
34924;SDS011;21130;51.728;8.748;2022-08-19T03:33:53;31.17;;;27.77;;
34924;SDS011;21130;51.728;8.748;2022-08-19T03:36:20;30.42;;;25.83;;
34924;SDS011;21130;51.728;8.748;2022-08-19T03:38:51;30.27;;;26.63;;
34924;SDS011;21130;51.728;8.748;2022-08-19T03:41:27;30.98;;;26.88;;
34924;SDS011;21130;51.728;8.748;2022-08-19T03:43:55;30.98;;;26.70;;
34924;SDS011;21130;51.728;8.748;2022-08-19T03:46:22;36.05;;;28.20;;
34924;SDS011;21130;51.728;8.748;2022-08-19T03:48:52;32.60;;;27.63;;
34924;SDS011;21130;51.728;8.748;2022-08-19T03:51:20;34.70;;;27.95;;
34924;SDS011;21130;51.728;8.748;2022-08-19T03:53:47;32.55;;;26.13;;
34924;SDS011;21130;51.728;8.748;2022-08-19T03:56:13;27.95;;;24.65;;
34924;SDS011;21130;51.728;8.748;2022-08-19T03:58:40;34.60;;;28.55;;
34924;SDS011;21130;51.728;8.748;2022-08-19T04:01:07;31.60;;;28.17;;
34924;SDS011;21130;51.728;8.748;2022-08-19T04:03:37;31.30;;;26.27;;
34924;SDS011;21130;51.728;8.748;2022-08-19T04:06:10;35.30;;;29.63;;
34924;SDS011;21130;51.728;8.748;2022-08-19T04:08:37;30.52;;;26.75;;
34924;SDS011;21130;51.728;8.748;2022-08-19T04:11:06;29.33;;;26.23;;
34924;SDS011;21130;51.728;8.748;2022-08-19T04:13:33;35.65;;;29.63;;
34924;SDS011;21130;51.728;8.748;2022-08-19T04:15:59;39.03;;;30.75;;
34924;SDS011;21130;51.728;8.748;2022-08-19T04:18:24;42.25;;;33.20;;
34924;SDS011;21130;51.728;8.748;2022-08-19T04:20:50;41.53;;;32.17;;
34924;SDS011;21130;51.728;8.748;2022-08-19T04:23:15;38.13;;;32.90;;
34924;SDS011;21130;51.728;8.748;2022-08-19T04:25:42;37.10;;;32.10;;
34924;SDS011;21130;51.728;8.748;2022-08-19T04:28:09;39.45;;;32.83;;
34924;SDS011;21130;51.728;8.748;2022-08-19T04:30:54;42.03;;;33.45;;
34924;SDS011;21130;51.728;8.748;2022-08-19T04:36:07;41.17;;;32.13;;
34924;SDS011;21130;51.728;8.748;2022-08-19T04:38:32;41.40;;;33.22;;
34924;SDS011;21130;51.728;8.748;2022-08-19T04:40:58;42.75;;;33.60;;
34924;SDS011;21130;51.728;8.748;2022-08-19T04:43:42;44.95;;;34.10;;
34924;SDS011;21130;51.728;8.748;2022-08-19T04:46:13;42.35;;;35.20;;
34924;SDS011;21130;51.728;8.748;2022-08-19T04:48:39;49.90;;;36.50;;
34924;SDS011;21130;51.728;8.748;2022-08-19T04:51:09;50.15;;;35.20;;
34924;SDS011;21130;51.728;8.748;2022-08-19T04:53:38;43.90;;;35.17;;
34924;SDS011;21130;51.728;8.748;2022-08-19T04:56:13;43.63;;;35.15;;
34924;SDS011;21130;51.728;8.748;2022-08-19T04:58:41;47.45;;;35.13;;
34924;SDS011;21130;51.728;8.748;2022-08-19T05:01:09;46.60;;;36.45;;
34924;SDS011;21130;51.728;8.748;2022-08-19T05:03:42;44.47;;;35.95;;
34924;SDS011;21130;51.728;8.748;2022-08-19T05:06:13;44.53;;;34.88;;
34924;SDS011;21130;51.728;8.748;2022-08-19T05:08:40;44.60;;;35.55;;
34924;SDS011;21130;51.728;8.748;2022-08-19T05:11:09;41.55;;;33.28;;
34924;SDS011;21130;51.728;8.748;2022-08-19T05:13:43;42.78;;;33.63;;
34924;SDS011;21130;51.728;8.748;2022-08-19T05:16:10;48.67;;;37.35;;
34924;SDS011;21130;51.728;8.748;2022-08-19T05:18:36;42.72;;;34.53;;
34924;SDS011;21130;51.728;8.748;2022-08-19T05:21:21;45.13;;;36.15;;
34924;SDS011;21130;51.728;8.748;2022-08-19T05:24:06;49.60;;;37.28;;
34924;SDS011;21130;51.728;8.748;2022-08-19T05:26:37;46.15;;;35.85;;
34924;SDS011;21130;51.728;8.748;2022-08-19T05:29:07;44.53;;;36.03;;
34924;SDS011;21130;51.728;8.748;2022-08-19T05:31:33;45.10;;;33.85;;
34924;SDS011;21130;51.728;8.748;2022-08-19T05:34:00;42.38;;;35.20;;
34924;SDS011;21130;51.728;8.748;2022-08-19T05:36:27;40.72;;;34.75;;
34924;SDS011;21130;51.728;8.748;2022-08-19T05:38:53;39.85;;;33.63;;
34924;SDS011;21130;51.728;8.748;2022-08-19T05:41:22;36.33;;;32.42;;
34924;SDS011;21130;51.728;8.748;2022-08-19T05:43:58;36.08;;;31.50;;
34924;SDS011;21130;51.728;8.748;2022-08-19T05:46:26;33.83;;;29.88;;
34924;SDS011;21130;51.728;8.748;2022-08-19T05:48:52;33.60;;;29.88;;
34924;SDS011;21130;51.728;8.748;2022-08-19T05:51:18;34.33;;;30.75;;
34924;SDS011;21130;51.728;8.748;2022-08-19T05:53:43;31.83;;;28.55;;
34924;SDS011;21130;51.728;8.748;2022-08-19T05:56:11;34.20;;;29.55;;
34924;SDS011;21130;51.728;8.748;2022-08-19T05:58:41;33.40;;;29.48;;
34924;SDS011;21130;51.728;8.748;2022-08-19T06:01:10;31.40;;;28.00;;
34924;SDS011;21130;51.728;8.748;2022-08-19T06:03:38;31.73;;;28.33;;
34924;SDS011;21130;51.728;8.748;2022-08-19T06:06:04;30.85;;;27.40;;
34924;SDS011;21130;51.728;8.748;2022-08-19T06:08:32;30.35;;;26.88;;
34924;SDS011;21130;51.728;8.748;2022-08-19T06:10:58;31.40;;;27.67;;
34924;SDS011;21130;51.728;8.748;2022-08-19T06:13:42;30.88;;;27.35;;
34924;SDS011;21130;51.728;8.748;2022-08-19T06:16:08;29.52;;;26.42;;
34924;SDS011;21130;51.728;8.748;2022-08-19T06:18:34;29.83;;;26.02;;
34924;SDS011;21130;51.728;8.748;2022-08-19T06:20:59;29.10;;;26.10;;
34924;SDS011;21130;51.728;8.748;2022-08-19T06:23:29;27.35;;;24.70;;
34924;SDS011;21130;51.728;8.748;2022-08-19T06:25:55;27.80;;;24.83;;
34924;SDS011;21130;51.728;8.748;2022-08-19T06:28:21;29.98;;;25.92;;
34924;SDS011;21130;51.728;8.748;2022-08-19T06:30:48;30.23;;;25.80;;
34924;SDS011;21130;51.728;8.748;2022-08-19T06:33:15;26.75;;;24.05;;
34924;SDS011;21130;51.728;8.748;2022-08-19T06:35:40;28.42;;;25.42;;
34924;SDS011;21130;51.728;8.748;2022-08-19T06:38:06;26.42;;;23.58;;
34924;SDS011;21130;51.728;8.748;2022-08-19T06:40:32;29.60;;;22.88;;
34924;SDS011;21130;51.728;8.748;2022-08-19T06:42:57;24.65;;;22.13;;
34924;SDS011;21130;51.728;8.748;2022-08-19T06:45:24;27.75;;;23.50;;
34924;SDS011;21130;51.728;8.748;2022-08-19T06:47:51;22.70;;;20.42;;
34924;SDS011;21130;51.728;8.748;2022-08-19T06:50:20;26.23;;;23.55;;
34924;SDS011;21130;51.728;8.748;2022-08-19T06:52:47;26.58;;;23.30;;
34924;SDS011;21130;51.728;8.748;2022-08-19T06:55:12;25.50;;;22.83;;
34924;SDS011;21130;51.728;8.748;2022-08-19T06:57:38;25.77;;;23.02;;
34924;SDS011;21130;51.728;8.748;2022-08-19T07:00:04;26.55;;;23.75;;
34924;SDS011;21130;51.728;8.748;2022-08-19T07:02:31;26.35;;;21.75;;
34924;SDS011;21130;51.728;8.748;2022-08-19T07:04:57;25.05;;;22.20;;
34924;SDS011;21130;51.728;8.748;2022-08-19T07:07:23;25.17;;;22.05;;
34924;SDS011;21130;51.728;8.748;2022-08-19T07:09:49;23.40;;;21.08;;
34924;SDS011;21130;51.728;8.748;2022-08-19T07:12:15;23.83;;;20.80;;
34924;SDS011;21130;51.728;8.748;2022-08-19T07:14:41;23.77;;;20.65;;
34924;SDS011;21130;51.728;8.748;2022-08-19T07:17:08;24.55;;;20.30;;
34924;SDS011;21130;51.728;8.748;2022-08-19T07:19:35;22.98;;;20.58;;
34924;SDS011;21130;51.728;8.748;2022-08-19T07:22:02;23.13;;;20.63;;
34924;SDS011;21130;51.728;8.748;2022-08-19T07:24:29;22.83;;;20.52;;
34924;SDS011;21130;51.728;8.748;2022-08-19T07:26:56;23.38;;;20.95;;
34924;SDS011;21130;51.728;8.748;2022-08-19T07:29:26;22.45;;;19.63;;
34924;SDS011;21130;51.728;8.748;2022-08-19T07:31:53;20.55;;;18.05;;
34924;SDS011;21130;51.728;8.748;2022-08-19T07:34:21;20.27;;;18.08;;
34924;SDS011;21130;51.728;8.748;2022-08-19T07:36:49;22.10;;;18.85;;
34924;SDS011;21130;51.728;8.748;2022-08-19T07:39:19;21.15;;;19.05;;
34924;SDS011;21130;51.728;8.748;2022-08-19T07:41:47;19.55;;;17.58;;
34924;SDS011;21130;51.728;8.748;2022-08-19T07:44:14;17.88;;;16.27;;
34924;SDS011;21130;51.728;8.748;2022-08-19T07:46:41;21.20;;;18.77;;
34924;SDS011;21130;51.728;8.748;2022-08-19T07:49:10;18.25;;;16.48;;
34924;SDS011;21130;51.728;8.748;2022-08-19T07:51:51;17.23;;;15.55;;
34924;SDS011;21130;51.728;8.748;2022-08-19T07:54:21;16.65;;;15.05;;
34924;SDS011;21130;51.728;8.748;2022-08-19T07:56:47;16.15;;;14.52;;
34924;SDS011;21130;51.728;8.748;2022-08-19T07:59:15;17.58;;;15.35;;
34924;SDS011;21130;51.728;8.748;2022-08-19T08:01:42;18.17;;;16.38;;
34924;SDS011;21130;51.728;8.748;2022-08-19T08:04:08;18.00;;;16.13;;
34924;SDS011;21130;51.728;8.748;2022-08-19T08:06:53;16.73;;;14.95;;
34924;SDS011;21130;51.728;8.748;2022-08-19T08:09:38;15.35;;;13.65;;
34924;SDS011;21130;51.728;8.748;2022-08-19T08:12:06;16.88;;;15.18;;
34924;SDS011;21130;51.728;8.748;2022-08-19T08:14:40;14.52;;;13.00;;
34924;SDS011;21130;51.728;8.748;2022-08-19T08:17:07;20.05;;;14.23;;
34924;SDS011;21130;51.728;8.748;2022-08-19T08:19:33;15.80;;;12.85;;
34924;SDS011;21130;51.728;8.748;2022-08-19T08:22:00;14.32;;;11.02;;
34924;SDS011;21130;51.728;8.748;2022-08-19T08:24:27;12.98;;;11.73;;
34924;SDS011;21130;51.728;8.748;2022-08-19T08:26:56;12.20;;;11.02;;
34924;SDS011;21130;51.728;8.748;2022-08-19T08:29:24;12.27;;;10.38;;
34924;SDS011;21130;51.728;8.748;2022-08-19T08:31:52;12.35;;;11.05;;
34924;SDS011;21130;51.728;8.748;2022-08-19T08:34:18;10.77;;;9.77;;
34924;SDS011;21130;51.728;8.748;2022-08-19T08:36:45;9.25;;;8.30;;
34924;SDS011;21130;51.728;8.748;2022-08-19T08:39:12;9.48;;;8.10;;
34924;SDS011;21130;51.728;8.748;2022-08-19T08:41:43;9.23;;;8.25;;
34924;SDS011;21130;51.728;8.748;2022-08-19T08:47:02;10.68;;;8.57;;
34924;SDS011;21130;51.728;8.748;2022-08-19T08:49:40;9.38;;;8.05;;
34924;SDS011;21130;51.728;8.748;2022-08-19T08:52:18;9.07;;;7.50;;
34924;SDS011;21130;51.728;8.748;2022-08-19T08:54:49;9.23;;;8.32;;
34924;SDS011;21130;51.728;8.748;2022-08-19T08:57:24;9.40;;;8.55;;
34924;SDS011;21130;51.728;8.748;2022-08-19T09:00:00;9.15;;;7.85;;
34924;SDS011;21130;51.728;8.748;2022-08-19T09:02:30;10.77;;;8.45;;
34924;SDS011;21130;51.728;8.748;2022-08-19T09:04:55;9.00;;;8.10;;
34924;SDS011;21130;51.728;8.748;2022-08-19T09:10:21;8.40;;;7.45;;
34924;SDS011;21130;51.728;8.748;2022-08-19T09:12:52;7.50;;;6.82;;
34924;SDS011;21130;51.728;8.748;2022-08-19T09:15:29;9.75;;;7.25;;
34924;SDS011;21130;51.728;8.748;2022-08-19T09:18:00;8.15;;;5.90;;
34924;SDS011;21130;51.728;8.748;2022-08-19T09:20:27;7.38;;;6.03;;
34924;SDS011;21130;51.728;8.748;2022-08-19T09:22:53;7.40;;;6.00;;
34924;SDS011;21130;51.728;8.748;2022-08-19T09:25:20;9.88;;;6.00;;
34924;SDS011;21130;51.728;8.748;2022-08-19T09:27:47;5.55;;;4.95;;
34924;SDS011;21130;51.728;8.748;2022-08-19T09:30:24;5.82;;;4.85;;
34924;SDS011;21130;51.728;8.748;2022-08-19T09:32:52;5.85;;;4.15;;
34924;SDS011;21130;51.728;8.748;2022-08-19T09:35:18;7.35;;;6.65;;
34924;SDS011;21130;51.728;8.748;2022-08-19T09:37:47;3.75;;;3.40;;
34924;SDS011;21130;51.728;8.748;2022-08-19T09:40:16;4.95;;;4.00;;
34924;SDS011;21130;51.728;8.748;2022-08-19T09:42:43;4.82;;;3.45;;
34924;SDS011;21130;51.728;8.748;2022-08-19T09:45:12;5.22;;;3.35;;
34924;SDS011;21130;51.728;8.748;2022-08-19T09:47:37;3.50;;;2.90;;
34924;SDS011;21130;51.728;8.748;2022-08-19T09:50:07;4.32;;;3.78;;
34924;SDS011;21130;51.728;8.748;2022-08-19T09:52:34;5.15;;;4.07;;
34924;SDS011;21130;51.728;8.748;2022-08-19T09:55:02;4.03;;;3.00;;
34924;SDS011;21130;51.728;8.748;2022-08-19T09:57:31;4.57;;;4.05;;
34924;SDS011;21130;51.728;8.748;2022-08-19T09:59:57;5.05;;;4.00;;
34924;SDS011;21130;51.728;8.748;2022-08-19T10:02:22;4.45;;;4.05;;
34924;SDS011;21130;51.728;8.748;2022-08-19T10:04:47;3.90;;;3.30;;
34924;SDS011;21130;51.728;8.748;2022-08-19T10:07:31;5.30;;;3.35;;
34924;SDS011;21130;51.728;8.748;2022-08-19T10:09:58;4.22;;;3.70;;
34924;SDS011;21130;51.728;8.748;2022-08-19T10:12:23;5.10;;;4.45;;
34924;SDS011;21130;51.728;8.748;2022-08-19T10:14:49;4.65;;;3.95;;
34924;SDS011;21130;51.728;8.748;2022-08-19T10:17:16;3.72;;;3.30;;
34924;SDS011;21130;51.728;8.748;2022-08-19T10:19:42;4.65;;;3.85;;
34924;SDS011;21130;51.728;8.748;2022-08-19T10:22:08;3.75;;;3.30;;
34924;SDS011;21130;51.728;8.748;2022-08-19T10:24:33;6.85;;;3.30;;
34924;SDS011;21130;51.728;8.748;2022-08-19T10:27:00;3.42;;;3.13;;
34924;SDS011;21130;51.728;8.748;2022-08-19T10:29:28;4.88;;;4.15;;
34924;SDS011;21130;51.728;8.748;2022-08-19T10:31:54;7.00;;;3.78;;
34924;SDS011;21130;51.728;8.748;2022-08-19T10:34:20;5.93;;;3.40;;
34924;SDS011;21130;51.728;8.748;2022-08-19T10:36:46;5.28;;;2.95;;
34924;SDS011;21130;51.728;8.748;2022-08-19T10:39:11;3.75;;;2.70;;
34924;SDS011;21130;51.728;8.748;2022-08-19T10:41:38;3.90;;;2.70;;
34924;SDS011;21130;51.728;8.748;2022-08-19T10:44:12;4.65;;;2.95;;
34924;SDS011;21130;51.728;8.748;2022-08-19T10:46:39;4.97;;;3.50;;
34924;SDS011;21130;51.728;8.748;2022-08-19T10:49:07;5.95;;;3.67;;
34924;SDS011;21130;51.728;8.748;2022-08-19T10:51:34;4.70;;;3.47;;
34924;SDS011;21130;51.728;8.748;2022-08-19T10:54:19;4.13;;;3.10;;
34924;SDS011;21130;51.728;8.748;2022-08-19T10:56:45;5.05;;;3.60;;
34924;SDS011;21130;51.728;8.748;2022-08-19T10:59:17;4.20;;;3.15;;
34924;SDS011;21130;51.728;8.748;2022-08-19T11:01:46;4.88;;;3.40;;
34924;SDS011;21130;51.728;8.748;2022-08-19T11:04:12;4.80;;;3.97;;
34924;SDS011;21130;51.728;8.748;2022-08-19T11:06:39;4.90;;;3.63;;
34924;SDS011;21130;51.728;8.748;2022-08-19T11:09:07;4.55;;;4.10;;
34924;SDS011;21130;51.728;8.748;2022-08-19T11:11:36;6.20;;;3.97;;
34924;SDS011;21130;51.728;8.748;2022-08-19T11:14:05;4.40;;;4.00;;
34924;SDS011;21130;51.728;8.748;2022-08-19T11:16:35;5.43;;;4.32;;
34924;SDS011;21130;51.728;8.748;2022-08-19T11:19:02;5.63;;;3.55;;
34924;SDS011;21130;51.728;8.748;2022-08-19T11:21:31;5.65;;;4.30;;
34924;SDS011;21130;51.728;8.748;2022-08-19T11:23:59;5.10;;;3.92;;
34924;SDS011;21130;51.728;8.748;2022-08-19T11:26:27;4.95;;;3.65;;
34924;SDS011;21130;51.728;8.748;2022-08-19T11:28:54;9.35;;;7.70;;
34924;SDS011;21130;51.728;8.748;2022-08-19T11:31:21;5.75;;;3.95;;
34924;SDS011;21130;51.728;8.748;2022-08-19T11:33:49;5.25;;;3.42;;
34924;SDS011;21130;51.728;8.748;2022-08-19T11:36:16;5.07;;;3.50;;
34924;SDS011;21130;51.728;8.748;2022-08-19T11:38:42;3.20;;;2.90;;
34924;SDS011;21130;51.728;8.748;2022-08-19T11:41:09;6.10;;;3.65;;
34924;SDS011;21130;51.728;8.748;2022-08-19T11:43:35;4.15;;;3.30;;
34924;SDS011;21130;51.728;8.748;2022-08-19T11:46:08;3.35;;;2.90;;
34924;SDS011;21130;51.728;8.748;2022-08-19T11:48:35;3.13;;;2.90;;
34924;SDS011;21130;51.728;8.748;2022-08-19T11:51:03;4.15;;;3.30;;
34924;SDS011;21130;51.728;8.748;2022-08-19T11:53:34;3.25;;;2.40;;
34924;SDS011;21130;51.728;8.748;2022-08-19T11:56:00;3.88;;;2.25;;
34924;SDS011;21130;51.728;8.748;2022-08-19T11:58:26;4.13;;;3.42;;
34924;SDS011;21130;51.728;8.748;2022-08-19T12:00:51;2.92;;;2.50;;
34924;SDS011;21130;51.728;8.748;2022-08-19T12:03:18;2.50;;;2.30;;
34924;SDS011;21130;51.728;8.748;2022-08-19T12:05:44;5.10;;;2.35;;
34924;SDS011;21130;51.728;8.748;2022-08-19T12:08:11;3.67;;;2.80;;
34924;SDS011;21130;51.728;8.748;2022-08-19T12:10:38;4.60;;;2.88;;
34924;SDS011;21130;51.728;8.748;2022-08-19T12:13:04;4.07;;;2.50;;
34924;SDS011;21130;51.728;8.748;2022-08-19T12:15:34;3.38;;;2.00;;
34924;SDS011;21130;51.728;8.748;2022-08-19T12:18:08;3.95;;;1.90;;
34924;SDS011;21130;51.728;8.748;2022-08-19T12:20:35;1.77;;;1.67;;
34924;SDS011;21130;51.728;8.748;2022-08-19T12:23:02;1.50;;;1.40;;
34924;SDS011;21130;51.728;8.748;2022-08-19T12:25:28;2.22;;;1.80;;
34924;SDS011;21130;51.728;8.748;2022-08-19T12:27:54;1.80;;;1.70;;
34924;SDS011;21130;51.728;8.748;2022-08-19T12:30:20;2.10;;;2.00;;
34924;SDS011;21130;51.728;8.748;2022-08-19T12:32:45;1.92;;;1.67;;
34924;SDS011;21130;51.728;8.748;2022-08-19T12:35:10;2.42;;;1.80;;
34924;SDS011;21130;51.728;8.748;2022-08-19T12:37:36;2.22;;;1.52;;
34924;SDS011;21130;51.728;8.748;2022-08-19T12:40:03;3.40;;;2.20;;
34924;SDS011;21130;51.728;8.748;2022-08-19T12:42:28;2.53;;;2.05;;
34924;SDS011;21130;51.728;8.748;2022-08-19T12:51:09;2.03;;;1.83;;
34924;SDS011;21130;51.728;8.748;2022-08-19T12:53:37;1.73;;;1.63;;
34924;SDS011;21130;51.728;8.748;2022-08-19T12:56:03;4.20;;;2.15;;
34924;SDS011;21130;51.728;8.748;2022-08-19T12:58:30;2.53;;;1.90;;
34924;SDS011;21130;51.728;8.748;2022-08-19T13:00:56;4.03;;;2.25;;
34924;SDS011;21130;51.728;8.748;2022-08-19T13:03:21;4.13;;;2.05;;
34924;SDS011;21130;51.728;8.748;2022-08-19T13:05:54;3.00;;;2.20;;
34924;SDS011;21130;51.728;8.748;2022-08-19T13:08:20;2.28;;;2.08;;
34924;SDS011;21130;51.728;8.748;2022-08-19T13:10:45;2.53;;;1.85;;
34924;SDS011;21130;51.728;8.748;2022-08-19T13:13:11;2.22;;;2.03;;
34924;SDS011;21130;51.728;8.748;2022-08-19T13:15:38;2.45;;;2.25;;
34924;SDS011;21130;51.728;8.748;2022-08-19T13:18:05;5.30;;;2.45;;
34924;SDS011;21130;51.728;8.748;2022-08-19T13:20:32;3.28;;;1.90;;
34924;SDS011;21130;51.728;8.748;2022-08-19T13:22:57;2.65;;;2.20;;
34924;SDS011;21130;51.728;8.748;2022-08-19T13:25:23;2.88;;;2.08;;
34924;SDS011;21130;51.728;8.748;2022-08-19T13:27:50;1.80;;;1.70;;
34924;SDS011;21130;51.728;8.748;2022-08-19T13:30:16;2.10;;;2.00;;
34924;SDS011;21130;51.728;8.748;2022-08-19T13:33:02;2.10;;;1.90;;
34924;SDS011;21130;51.728;8.748;2022-08-19T13:35:39;3.05;;;2.05;;
34924;SDS011;21130;51.728;8.748;2022-08-19T13:38:32;2.20;;;2.00;;
34924;SDS011;21130;51.728;8.748;2022-08-19T13:41:03;2.35;;;2.15;;
34924;SDS011;21130;51.728;8.748;2022-08-19T13:43:30;3.75;;;2.60;;
34924;SDS011;21130;51.728;8.748;2022-08-19T13:45:55;3.88;;;2.30;;
34924;SDS011;21130;51.728;8.748;2022-08-19T13:48:21;4.30;;;3.20;;
34924;SDS011;21130;51.728;8.748;2022-08-19T13:50:48;2.50;;;2.30;;
34924;SDS011;21130;51.728;8.748;2022-08-19T13:53:14;3.97;;;2.42;;
34924;SDS011;21130;51.728;8.748;2022-08-19T13:55:41;3.55;;;2.55;;
34924;SDS011;21130;51.728;8.748;2022-08-19T13:58:08;3.78;;;2.90;;
34924;SDS011;21130;51.728;8.748;2022-08-19T14:00:36;4.15;;;2.40;;
34924;SDS011;21130;51.728;8.748;2022-08-19T14:03:04;3.25;;;2.78;;
34924;SDS011;21130;51.728;8.748;2022-08-19T14:05:30;3.20;;;2.50;;
34924;SDS011;21130;51.728;8.748;2022-08-19T14:07:56;3.08;;;2.63;;
34924;SDS011;21130;51.728;8.748;2022-08-19T14:10:22;7.68;;;2.90;;
34924;SDS011;21130;51.728;8.748;2022-08-19T14:12:48;5.18;;;3.10;;
34924;SDS011;21130;51.728;8.748;2022-08-19T14:15:14;3.28;;;2.70;;
34924;SDS011;21130;51.728;8.748;2022-08-19T14:17:41;4.93;;;3.17;;
34924;SDS011;21130;51.728;8.748;2022-08-19T14:20:09;2.90;;;2.45;;
34924;SDS011;21130;51.728;8.748;2022-08-19T14:22:36;5.47;;;2.63;;
34924;SDS011;21130;51.728;8.748;2022-08-19T14:25:03;3.72;;;2.60;;
34924;SDS011;21130;51.728;8.748;2022-08-19T14:27:32;4.70;;;2.33;;
34924;SDS011;21130;51.728;8.748;2022-08-19T14:29:59;4.20;;;2.72;;
34924;SDS011;21130;51.728;8.748;2022-08-19T14:32:24;3.35;;;2.78;;
34924;SDS011;21130;51.728;8.748;2022-08-19T14:34:52;4.50;;;2.72;;
34924;SDS011;21130;51.728;8.748;2022-08-19T14:37:18;2.85;;;2.53;;
34924;SDS011;21130;51.728;8.748;2022-08-19T14:39:44;3.45;;;2.50;;
34924;SDS011;21130;51.728;8.748;2022-08-19T14:42:10;5.18;;;2.67;;
34924;SDS011;21130;51.728;8.748;2022-08-19T14:44:36;2.83;;;2.50;;
34924;SDS011;21130;51.728;8.748;2022-08-19T14:47:02;3.33;;;2.70;;
34924;SDS011;21130;51.728;8.748;2022-08-19T14:49:28;4.82;;;2.65;;
34924;SDS011;21130;51.728;8.748;2022-08-19T14:51:54;2.70;;;2.40;;
34924;SDS011;21130;51.728;8.748;2022-08-19T14:54:20;4.00;;;2.28;;
34924;SDS011;21130;51.728;8.748;2022-08-19T14:56:46;3.17;;;2.65;;